createdAt,value
2022-10-12T00:01:05.812Z,100221.59
2022-10-12T00:03:33.832Z,100223.34
2022-10-12T00:06:08.065Z,100225.06
2022-10-12T00:08:35.464Z,100225.06
2022-10-12T00:11:02.393Z,100221.59
2022-10-12T00:13:28.903Z,100230.28
2022-10-12T00:15:55.387Z,100225.94
2022-10-12T00:18:22.005Z,100217.28
2022-10-12T00:20:48.557Z,100213.81
2022-10-12T00:23:15.164Z,100215.56
2022-10-12T00:25:42.535Z,100219.94
2022-10-12T00:28:09.093Z,100213.81
2022-10-12T00:30:40.696Z,100217.28
2022-10-12T00:33:07.230Z,100212.97
2022-10-12T00:35:33.734Z,100210.34
2022-10-12T00:38:00.202Z,100209.47
2022-10-12T00:40:26.799Z,100209.47
2022-10-12T00:42:53.293Z,100217.28
2022-10-12T00:45:19.749Z,100212.09
2022-10-12T00:47:56.711Z,100213.81
2022-10-12T00:50:33.047Z,100214.69
2022-10-12T00:53:04.193Z,100215.53
2022-10-12T00:55:36.892Z,100209.47
2022-10-12T00:58:05.640Z,100197.34
2022-10-12T01:00:32.190Z,100207.69
2022-10-12T01:02:59.097Z,100202.50
2022-10-12T01:05:25.779Z,100204.25
2022-10-12T01:07:52.307Z,100201.69
2022-10-12T01:10:18.995Z,100197.34
2022-10-12T01:12:48.562Z,100203.41
2022-10-12T01:15:15.680Z,100205.97
2022-10-12T01:18:15.394Z,100204.25
2022-10-12T01:20:47.976Z,100206.00
2022-10-12T01:23:17.599Z,100202.50
2022-10-12T01:26:35.267Z,100196.47
2022-10-12T01:29:13.646Z,100206.84
2022-10-12T01:32:06.408Z,100193.88
2022-10-12T01:35:01.196Z,100203.34
2022-10-12T01:37:44.101Z,100194.72
2022-10-12T01:40:20.956Z,100192.97
2022-10-12T01:42:48.399Z,100184.31
2022-10-12T01:45:18.081Z,100176.53
2022-10-12T01:47:49.527Z,100178.28
2022-10-12T01:50:17.683Z,100172.22
2022-10-12T01:53:11.951Z,100181.72
2022-10-12T01:56:02.724Z,100175.69
2022-10-12T01:59:07.476Z,100181.75
2022-10-12T02:01:45.833Z,100178.31
2022-10-12T02:04:36.698Z,100175.69
2022-10-12T02:07:17.146Z,100173.06
2022-10-12T02:09:44.458Z,100164.38
2022-10-12T02:12:19.397Z,100160.94
2022-10-12T02:14:53.246Z,100152.28
2022-10-12T02:17:22.974Z,100155.72
2022-10-12T02:19:56.171Z,100145.34
2022-10-12T02:22:26.345Z,100153.97
2022-10-12T02:24:57.971Z,100142.72
2022-10-12T02:27:26.154Z,100140.16
2022-10-12T02:29:53.133Z,100141.88
2022-10-12T02:32:30.115Z,100136.69
2022-10-12T02:35:16.265Z,100139.31
2022-10-12T02:38:08.718Z,100141.88
2022-10-12T02:40:41.334Z,100139.28
2022-10-12T02:43:13.939Z,100141.00
2022-10-12T02:45:44.785Z,100138.44
2022-10-12T02:48:15.883Z,100141.03
2022-10-12T02:50:43.795Z,100143.63
2022-10-12T02:53:10.443Z,100128.91
2022-10-12T02:56:01.302Z,100128.03
2022-10-12T02:58:27.859Z,100127.19
2022-10-12T03:00:54.398Z,100141.00
2022-10-12T03:03:21.595Z,100134.09
2022-10-12T03:05:48.081Z,100133.25
2022-10-12T03:08:14.593Z,100141.91
2022-10-12T03:10:41.119Z,100159.22
2022-10-12T03:13:07.715Z,100149.69
2022-10-12T03:15:34.209Z,100151.41
2022-10-12T03:18:00.694Z,100134.94
2022-10-12T03:20:27.252Z,100135.81
2022-10-12T03:22:53.704Z,100132.25
2022-10-12T03:25:20.224Z,100133.19
2022-10-12T03:27:46.767Z,100127.06
2022-10-12T03:30:13.690Z,100130.56
2022-10-12T03:32:40.528Z,100139.28
2022-10-12T03:35:07.986Z,100127.94
2022-10-12T03:37:34.651Z,100134.88
2022-10-12T03:40:01.138Z,100125.34
2022-10-12T03:42:27.660Z,100139.28
2022-10-12T03:44:54.548Z,100146.19
2022-10-12T03:47:21.111Z,100150.47
2022-10-12T03:49:47.749Z,100147.91
2022-10-12T03:52:14.268Z,100150.47
2022-10-12T03:54:40.748Z,100146.97
2022-10-12T03:57:07.324Z,100144.38
2022-10-12T03:59:33.879Z,100149.56
2022-10-12T04:02:00.408Z,100154.72
2022-10-12T04:04:26.941Z,100152.13
2022-10-12T04:06:53.667Z,100151.31
2022-10-12T04:09:20.634Z,100150.41
2022-10-12T04:11:47.170Z,100148.69
2022-10-12T04:14:13.648Z,100150.34
2022-10-12T04:16:40.457Z,100150.41
2022-10-12T04:19:06.933Z,100144.34
2022-10-12T04:21:33.468Z,100146.06
2022-10-12T04:24:00.036Z,100151.25
2022-10-12T04:26:26.587Z,100149.53
2022-10-12T04:28:53.125Z,100154.72
2022-10-12T04:31:19.756Z,100153.00
2022-10-12T04:33:46.258Z,100154.66
2022-10-12T04:36:12.789Z,100144.28
2022-10-12T04:38:39.314Z,100141.69
2022-10-12T04:41:05.925Z,100139.97
2022-10-12T04:43:32.454Z,100152.00
2022-10-12T04:46:00.260Z,100138.19
2022-10-12T04:48:28.106Z,100144.22
2022-10-12T04:50:54.657Z,100137.28
2022-10-12T04:53:21.253Z,100126.00
2022-10-12T04:55:47.799Z,100135.53
2022-10-12T04:58:14.347Z,100140.75
2022-10-12T05:00:41.054Z,100142.44
2022-10-12T05:03:07.609Z,100143.38
2022-10-12T05:05:37.264Z,100156.34
2022-10-12T05:08:04.904Z,100159.84
2022-10-12T05:10:31.680Z,100155.47
2022-10-12T05:12:58.694Z,100158.13
2022-10-12T05:15:25.412Z,100159.00
2022-10-12T05:17:51.890Z,100153.78
2022-10-12T05:20:18.446Z,100147.75
2022-10-12T05:22:45.027Z,100164.25
2022-10-12T05:25:11.521Z,100159.91
2022-10-12T05:27:38.316Z,100149.47
2022-10-12T05:30:06.351Z,100148.63
2022-10-12T05:32:32.972Z,100149.47
2022-10-12T05:35:00.039Z,100145.22
2022-10-12T05:37:26.580Z,100158.19
2022-10-12T05:39:53.130Z,100174.63
2022-10-12T05:42:19.640Z,100166.78
2022-10-12T05:44:46.174Z,100171.09
2022-10-12T05:47:12.643Z,100169.38
2022-10-12T05:49:39.235Z,100172.84
2022-10-12T05:52:05.735Z,100174.56
2022-10-12T05:54:32.222Z,100169.38
2022-10-12T05:56:58.915Z,100160.72
2022-10-12T05:59:25.415Z,100165.84
2022-10-12T06:01:51.973Z,100153.75
2022-10-12T06:04:18.561Z,100161.63
2022-10-12T06:06:45.122Z,100172.13
2022-10-12T06:09:12.831Z,100199.88
2022-10-12T06:11:39.640Z,100205.03
2022-10-12T06:14:06.247Z,100192.78
2022-10-12T06:16:32.854Z,100197.09
2022-10-12T06:18:59.727Z,100191.97
2022-10-12T06:21:33.350Z,100197.09
2022-10-12T06:24:03.173Z,100187.59
2022-10-12T06:26:29.812Z,100188.44
2022-10-12T06:28:56.519Z,100188.47
2022-10-12T06:31:23.442Z,100185.88
2022-10-12T06:33:51.012Z,100185.94
2022-10-12T06:36:17.878Z,100188.50
2022-10-12T06:38:44.452Z,100187.59
2022-10-12T06:41:11.226Z,100202.41
2022-10-12T06:43:37.862Z,100204.13
2022-10-12T06:46:04.473Z,100190.94
2022-10-12T06:48:31.194Z,100165.84
2022-10-12T06:50:58.227Z,100175.47
2022-10-12T06:53:28.586Z,100186.78
2022-10-12T06:55:55.123Z,100197.97
2022-10-12T06:58:21.587Z,100197.97
2022-10-12T07:00:48.104Z,100194.50
2022-10-12T07:03:14.702Z,100199.69
2022-10-12T07:05:41.547Z,100199.69
2022-10-12T07:08:08.385Z,100208.44
2022-10-12T07:10:35.187Z,100236.22
2022-10-12T07:13:01.724Z,100243.13
2022-10-12T07:15:28.193Z,100243.13
2022-10-12T07:17:54.802Z,100244.00
2022-10-12T07:20:21.892Z,100248.25
2022-10-12T07:22:48.468Z,100256.91
2022-10-12T07:25:15.119Z,100256.91
2022-10-12T07:27:42.016Z,100270.72
2022-10-12T07:30:09.435Z,100247.19
2022-10-12T07:32:36.543Z,100242.88
2022-10-12T07:35:03.202Z,100234.28
2022-10-12T07:37:29.677Z,100249.91
2022-10-12T07:39:57.691Z,100254.22
2022-10-12T07:42:25.389Z,100249.78
2022-10-12T07:44:52.169Z,100254.22
2022-10-12T07:47:19.439Z,100262.97
2022-10-12T07:49:46.270Z,100291.72
2022-10-12T07:52:13.022Z,100316.81
2022-10-12T07:54:39.707Z,100325.50
2022-10-12T07:57:06.826Z,100339.41
2022-10-12T07:59:33.323Z,100348.06
2022-10-12T08:01:59.910Z,100344.56
2022-10-12T08:04:26.533Z,100339.19
2022-10-12T08:06:53.078Z,100324.50
2022-10-12T08:09:19.976Z,100308.88
2022-10-12T08:11:46.642Z,100307.09
2022-10-12T08:14:15.612Z,100328.00
2022-10-12T08:16:45.496Z,100324.47
2022-10-12T08:19:13.168Z,100325.28
2022-10-12T08:21:41.170Z,100310.56
2022-10-12T08:24:09.055Z,100326.22
2022-10-12T08:26:38.137Z,100332.19
2022-10-12T08:29:06.317Z,100320.88
2022-10-12T08:31:32.891Z,100314.88
2022-10-12T08:33:59.743Z,100303.63
2022-10-12T08:36:29.043Z,100323.63
2022-10-12T08:38:55.891Z,100327.03
2022-10-12T08:41:56.419Z,100334.06
2022-10-12T08:45:12.442Z,100352.31
2022-10-12T08:47:46.608Z,100352.25
2022-10-12T08:50:27.070Z,100351.38
2022-10-12T08:53:11.067Z,100362.69
2022-10-12T08:55:44.257Z,100362.69
2022-10-12T08:58:23.323Z,100361.81
2022-10-12T09:00:55.193Z,100348.72
2022-10-12T09:03:39.085Z,100339.25
2022-10-12T09:06:20.035Z,100341.84
2022-10-12T09:08:52.527Z,100328.81
2022-10-12T09:11:38.555Z,100339.25
2022-10-12T09:14:23.807Z,100355.78
2022-10-12T09:16:52.502Z,100358.44
2022-10-12T09:19:22.258Z,100359.41
2022-10-12T09:21:50.532Z,100368.06
2022-10-12T09:24:28.788Z,100380.22
2022-10-12T09:27:00.662Z,100382.81
2022-10-12T09:29:31.230Z,100382.81
2022-10-12T09:32:00.888Z,100382.00
2022-10-12T09:34:27.494Z,100393.28
2022-10-12T09:36:55.636Z,100380.22
2022-10-12T09:39:29.248Z,100379.34
2022-10-12T09:41:56.302Z,100379.31
2022-10-12T09:44:36.393Z,100376.72
2022-10-12T09:47:24.066Z,100381.06
2022-10-12T09:49:52.629Z,100375.88
2022-10-12T09:52:24.741Z,100376.72
2022-10-12T09:54:54.611Z,100378.47
2022-10-12T09:57:25.023Z,100380.22
2022-10-12T09:59:52.043Z,100386.28
2022-10-12T10:02:23.613Z,100385.44
2022-10-12T10:04:51.926Z,100381.09
2022-10-12T10:07:31.872Z,100384.56
2022-10-12T10:10:14.107Z,100388.03
2022-10-12T10:12:56.122Z,100388.88
2022-10-12T10:15:28.003Z,100390.66
2022-10-12T10:18:00.872Z,100391.53
2022-10-12T10:20:34.858Z,100394.13
2022-10-12T10:23:03.991Z,100394.97
2022-10-12T10:25:30.618Z,100390.63
2022-10-12T10:28:20.463Z,100392.34
2022-10-12T10:31:00.460Z,100383.47
2022-10-12T10:33:27.065Z,100382.66
2022-10-12T10:36:19.782Z,100384.53
2022-10-12T10:39:06.219Z,100384.50
2022-10-12T10:41:41.013Z,100383.44
2022-10-12T10:44:25.738Z,100376.41
2022-10-12T10:46:54.397Z,100371.19
2022-10-12T10:49:36.686Z,100378.06
2022-10-12T10:52:05.845Z,100372.84
2022-10-12T10:54:35.135Z,100377.97
2022-10-12T10:57:06.333Z,100379.66
2022-10-12T10:59:35.857Z,100374.41
2022-10-12T11:02:16.975Z,100370.03
2022-10-12T11:04:47.785Z,100372.59
2022-10-12T11:07:26.494Z,100373.44
2022-10-12T11:09:57.671Z,100373.44
2022-10-12T11:12:31.336Z,100373.41
2022-10-12T11:15:19.338Z,100367.28
2022-10-12T11:17:50.519Z,100363.75
2022-10-12T11:20:29.394Z,100367.06
2022-10-12T11:23:05.558Z,100363.63
2022-10-12T11:25:48.279Z,100360.97
2022-10-12T11:28:16.658Z,100365.41
2022-10-12T11:30:50.522Z,100362.09
2022-10-12T11:33:27.916Z,100358.25
2022-10-12T11:35:56.950Z,100367.69
2022-10-12T11:38:38.970Z,100362.34
2022-10-12T11:41:34.343Z,100361.34
2022-10-12T11:44:15.439Z,100359.63
2022-10-12T11:46:49.807Z,100349.38
2022-10-12T11:49:25.007Z,100344.09
2022-10-12T11:51:54.748Z,100344.00
2022-10-12T11:54:34.812Z,100342.84
2022-10-12T11:57:10.590Z,100330.66
2022-10-12T12:00:25.214Z,100326.13
2022-10-12T12:03:18.063Z,100333.50
2022-10-12T12:05:44.653Z,100338.66
2022-10-12T12:08:39.052Z,100328.84
2022-10-12T12:11:19.009Z,100328.81
2022-10-12T12:13:46.002Z,100329.63
2022-10-12T12:16:12.435Z,100324.06
2022-10-12T12:19:13.324Z,100332.47
2022-10-12T12:22:18.341Z,100326.28
2022-10-12T12:24:55.818Z,100331.78
2022-10-12T12:27:30.357Z,100324.66
2022-10-12T12:29:58.346Z,100328.53
2022-10-12T12:32:27.075Z,100320.72
2022-10-12T12:35:00.252Z,100313.59
2022-10-12T12:37:33.245Z,100309.72
2022-10-12T12:39:59.996Z,100303.69
2022-10-12T12:42:34.270Z,100302.22
2022-10-12T12:45:38.611Z,100291.66
2022-10-12T12:48:09.813Z,100295.59
2022-10-12T12:50:38.312Z,100291.75
2022-10-12T12:53:18.554Z,100293.97
2022-10-12T12:55:47.816Z,100291.63
2022-10-12T12:58:47.692Z,100290.38
2022-10-12T13:01:55.743Z,100284.34
2022-10-12T13:04:44.396Z,100289.31
2022-10-12T13:07:35.723Z,100282.41
2022-10-12T13:10:02.237Z,100280.97
2022-10-12T13:12:31.690Z,100280.84
2022-10-12T13:15:16.223Z,100272.59
2022-10-12T13:18:34.605Z,100277.53
2022-10-12T13:21:06.622Z,100266.34
2022-10-12T13:23:33.730Z,100265.88
2022-10-12T13:26:08.356Z,100260.03
2022-10-12T13:28:39.859Z,100258.06
2022-10-12T13:31:16.985Z,100253.41
2022-10-12T13:33:57.667Z,100255.91
2022-10-12T13:36:27.418Z,100253.22
2022-10-12T13:38:59.318Z,100248.22
2022-10-12T13:41:31.398Z,100246.63
2022-10-12T13:44:00.951Z,100254.00
2022-10-12T13:46:48.506Z,100239.94
2022-10-12T13:49:22.004Z,100243.56
2022-10-12T13:51:55.415Z,100247.75
2022-10-12T13:54:26.135Z,100248.50
2022-10-12T13:56:59.514Z,100246.69
2022-10-12T13:59:30.975Z,100247.72
2022-10-12T14:02:02.922Z,100250.34
2022-10-12T14:04:35.229Z,100234.31
2022-10-12T14:07:07.725Z,100255.47
2022-10-12T14:09:42.007Z,100246.66
2022-10-12T14:12:10.866Z,100249.00
2022-10-12T14:14:39.931Z,100253.38
2022-10-12T14:17:06.789Z,100243.94
2022-10-12T14:19:41.211Z,100245.63
2022-10-12T14:22:08.384Z,100237.47
2022-10-12T14:24:36.847Z,100240.88
2022-10-12T14:27:08.079Z,100232.13
2022-10-12T14:29:45.558Z,100238.31
2022-10-12T14:32:12.003Z,100229.94
2022-10-12T14:34:47.619Z,100229.81
2022-10-12T14:37:17.133Z,100228.97
2022-10-12T14:39:49.074Z,100239.47
2022-10-12T14:42:35.977Z,100233.03
2022-10-12T14:45:22.771Z,100218.09
2022-10-12T14:47:49.324Z,100228.72
2022-10-12T14:50:19.166Z,100221.34
2022-10-12T14:52:49.183Z,100224.69
2022-10-12T14:55:24.890Z,100229.13
2022-10-12T14:57:51.819Z,100223.84
2022-10-12T15:00:21.328Z,100213.81
2022-10-12T15:02:48.546Z,100215.75
2022-10-12T15:05:17.776Z,100216.25
2022-10-12T15:07:45.410Z,100216.13
2022-10-12T15:10:12.032Z,100213.94
2022-10-12T15:12:38.570Z,100217.28
2022-10-12T15:15:28.710Z,100215.22
2022-10-12T15:17:55.759Z,100224.00
2022-10-12T15:20:22.530Z,100219.06
2022-10-12T15:22:49.083Z,100213.38
2022-10-12T15:25:50.325Z,100213.22
2022-10-12T15:28:16.963Z,100207.81
2022-10-12T15:31:11.833Z,100206.91
2022-10-12T15:33:31.119Z,100206.25
2022-10-12T15:35:57.719Z,100208.63
2022-10-12T15:38:24.565Z,100207.72
2022-10-12T15:40:52.737Z,100216.44
2022-10-12T15:43:19.887Z,100225.75
2022-10-12T15:45:46.391Z,100211.53
2022-10-12T15:48:12.859Z,100218.94
2022-10-12T15:50:43.605Z,100218.19
2022-10-12T15:53:24.822Z,100217.91
2022-10-12T15:55:55.870Z,100208.31
2022-10-12T15:58:22.679Z,100223.25
2022-10-12T16:00:49.595Z,100222.66
2022-10-12T16:03:24.557Z,100220.75
2022-10-12T16:05:52.401Z,100220.66
2022-10-12T16:08:18.998Z,100216.81
2022-10-12T16:10:46.207Z,100214.41
2022-10-12T16:13:13.619Z,100218.56
2022-10-12T16:15:41.622Z,100207.31
2022-10-12T16:18:08.465Z,100217.72
2022-10-12T16:20:37.538Z,100220.66
2022-10-12T16:23:06.963Z,100214.47
2022-10-12T16:25:35.127Z,100211.59
2022-10-12T16:28:01.962Z,100210.00
2022-10-12T16:30:28.610Z,100213.50
2022-10-12T16:32:55.264Z,100214.38
2022-10-12T16:35:22.516Z,100207.25
2022-10-12T16:37:49.058Z,100212.97
2022-10-12T16:40:16.007Z,100212.44
2022-10-12T16:42:43.198Z,100213.06
2022-10-12T16:45:10.833Z,100209.53
2022-10-12T16:47:42.757Z,100211.59
2022-10-12T16:50:10.150Z,100214.59
2022-10-12T16:52:36.665Z,100216.31
2022-10-12T16:55:03.518Z,100221.69
2022-10-12T16:57:30.170Z,100230.44
2022-10-12T16:59:56.776Z,100238.38
2022-10-12T17:02:23.302Z,100230.59
2022-10-12T17:04:49.854Z,100231.53
2022-10-12T17:07:17.131Z,100230.59
2022-10-12T17:09:43.940Z,100232.19
2022-10-12T17:12:10.538Z,100235.75
2022-10-12T17:14:37.847Z,100243.72
2022-10-12T17:17:05.784Z,100250.03
2022-10-12T17:19:40.795Z,100251.63
2022-10-12T17:22:10.049Z,100254.88
2022-10-12T17:24:39.042Z,100252.56
2022-10-12T17:27:07.993Z,100249.81
2022-10-12T17:29:37.570Z,100250.91
2022-10-12T17:32:04.245Z,100259.00
2022-10-12T17:34:34.433Z,100261.34
2022-10-12T17:37:02.307Z,100272.06
2022-10-12T17:39:31.246Z,100279.63
2022-10-12T17:41:57.778Z,100282.34
2022-10-12T17:44:24.276Z,100280.59
2022-10-12T17:46:50.808Z,100279.81
2022-10-12T17:49:24.272Z,100282.28
2022-10-12T17:51:51.562Z,100295.59
2022-10-12T17:54:18.859Z,100301.59
2022-10-12T17:56:45.595Z,100306.78
2022-10-12T17:59:14.722Z,100312.88
2022-10-12T18:01:41.498Z,100312.63
2022-10-12T18:04:09.067Z,100322.63
2022-10-12T18:06:35.602Z,100321.75
2022-10-12T18:09:04.515Z,100324.53
2022-10-12T18:11:31.401Z,100329.78
2022-10-12T18:13:58.243Z,100335.38
2022-10-12T18:16:27.918Z,100335.66
2022-10-12T18:18:55.613Z,100344.56
2022-10-12T18:21:24.850Z,100341.78
2022-10-12T18:23:51.938Z,100348.41
2022-10-12T18:26:20.010Z,100353.59
2022-10-12T18:28:48.056Z,100349.88
2022-10-12T18:31:22.699Z,100357.03
2022-10-12T18:33:49.875Z,100355.75
2022-10-12T18:36:17.427Z,100359.75
2022-10-12T18:38:44.037Z,100369.00
2022-10-12T18:41:14.220Z,100356.63
2022-10-12T18:43:41.318Z,100362.47
2022-10-12T18:46:14.066Z,100364.47
2022-10-12T18:48:41.247Z,100364.38
2022-10-12T18:51:23.850Z,100364.06
2022-10-12T18:53:50.771Z,100368.63
2022-10-12T18:56:19.161Z,100367.34
2022-10-12T18:58:46.232Z,100361.19
2022-10-12T19:01:18.832Z,100367.34
2022-10-12T19:03:46.215Z,100364.84
2022-10-12T19:06:15.673Z,100369.19
2022-10-12T19:08:45.789Z,100362.81
2022-10-12T19:11:13.435Z,100358.59
2022-10-12T19:13:41.106Z,100358.56
2022-10-12T19:16:11.018Z,100368.31
2022-10-12T19:18:39.095Z,100362.97
2022-10-12T19:21:15.852Z,100356.44
2022-10-12T19:23:43.524Z,100359.06
2022-10-12T19:26:13.783Z,100365.19
2022-10-12T19:28:44.594Z,100373.69
2022-10-12T19:31:18.014Z,100362.25
2022-10-12T19:33:47.837Z,100363.22
2022-10-12T19:36:16.897Z,100364.22
2022-10-12T19:38:45.933Z,100371.41
2022-10-12T19:41:13.341Z,100374.69
2022-10-12T19:43:40.010Z,100382.47
2022-10-12T19:46:08.858Z,100375.56
2022-10-12T19:48:45.513Z,100374.63
2022-10-12T19:51:14.084Z,100373.75
2022-10-12T19:53:46.837Z,100372.00
2022-10-12T19:56:16.808Z,100372.81
2022-10-12T19:58:45.826Z,100372.94
2022-10-12T20:01:15.705Z,100373.09
2022-10-12T20:03:47.453Z,100378.34
2022-10-12T20:06:14.562Z,100383.66
2022-10-12T20:08:42.575Z,100385.28
2022-10-12T20:11:15.503Z,100395.88
2022-10-12T20:13:45.837Z,100385.38
2022-10-12T20:16:13.440Z,100386.22
2022-10-12T20:18:40.229Z,100388.06
2022-10-12T20:21:09.035Z,100387.25
2022-10-12T20:23:36.612Z,100387.16
2022-10-12T20:26:09.414Z,100395.91
2022-10-12T20:28:37.727Z,100392.47
2022-10-12T20:31:07.396Z,100389.88
2022-10-12T20:33:39.121Z,100391.63
2022-10-12T20:36:18.445Z,100404.59
2022-10-12T20:38:45.241Z,100400.31
2022-10-12T20:41:14.145Z,100405.53
2022-10-12T20:43:40.784Z,100407.31
2022-10-12T20:46:11.360Z,100418.56
2022-10-12T20:48:40.011Z,100425.66
2022-10-12T20:51:08.326Z,100414.22
2022-10-12T20:53:35.495Z,100420.25
2022-10-12T20:56:06.471Z,100419.47
2022-10-12T20:58:33.042Z,100420.41
2022-10-12T21:01:14.073Z,100430.88
2022-10-12T21:03:42.105Z,100423.91
2022-10-12T21:06:12.064Z,100423.09
2022-10-12T21:08:39.003Z,100429.13
2022-10-12T21:11:06.446Z,100431.91
2022-10-12T21:13:35.202Z,100430.97
2022-10-12T21:16:01.992Z,100426.69
2022-10-12T21:18:32.830Z,100435.28
2022-10-12T21:21:11.701Z,100429.34
2022-10-12T21:23:41.988Z,100432.81
2022-10-12T21:26:19.926Z,100426.00
2022-10-12T21:28:47.114Z,100426.97
2022-10-12T21:31:14.484Z,100419.03
2022-10-12T21:33:41.769Z,100413.75
2022-10-12T21:36:20.396Z,100419.91
2022-10-12T21:38:47.680Z,100417.41
2022-10-12T21:41:15.713Z,100420.81
2022-10-12T21:43:43.275Z,100421.66
2022-10-12T21:46:18.749Z,100419.09
2022-10-12T21:48:46.718Z,100424.19
2022-10-12T21:51:13.690Z,100428.59
2022-10-12T21:53:40.655Z,100433.78
2022-10-12T21:56:14.287Z,100435.50
2022-10-12T21:58:41.196Z,100436.34
2022-10-12T22:01:16.349Z,100443.38
2022-10-12T22:03:51.569Z,100444.28
2022-10-12T22:06:20.677Z,100441.72
2022-10-12T22:08:52.415Z,100439.97
2022-10-12T22:11:19.217Z,100433.06
2022-10-12T22:13:45.944Z,100426.09
2022-10-12T22:16:14.935Z,100427.84
2022-10-12T22:18:42.134Z,100420.88
2022-10-12T22:21:19.001Z,100425.22
2022-10-12T22:23:45.799Z,100426.09
2022-10-12T22:26:18.290Z,100419.16
2022-10-12T22:28:45.262Z,100421.81
2022-10-12T22:31:13.807Z,100421.78
2022-10-12T22:33:40.886Z,100423.50
2022-10-12T22:36:11.626Z,100420.91
2022-10-12T22:38:38.221Z,100413.94
2022-10-12T22:41:07.121Z,100411.34
2022-10-12T22:43:34.896Z,100417.47
2022-10-12T22:46:01.988Z,100420.97
2022-10-12T22:48:29.239Z,100420.91
2022-10-12T22:50:55.981Z,100416.56
2022-10-12T22:53:24.926Z,100423.47
2022-10-12T22:56:17.975Z,100420.94
2022-10-12T22:58:47.391Z,100422.69
2022-10-12T23:01:19.831Z,100420.97
2022-10-12T23:03:46.389Z,100421.84
2022-10-12T23:06:14.607Z,100411.44
2022-10-12T23:08:41.353Z,100420.13
2022-10-12T23:11:15.935Z,100417.53
2022-10-12T23:13:43.840Z,100420.16
2022-10-12T23:16:19.791Z,100427.94
2022-10-12T23:18:46.949Z,100432.28
2022-10-12T23:21:19.728Z,100441.81
2022-10-12T23:23:46.347Z,100445.25
2022-10-12T23:26:19.698Z,100438.34
2022-10-12T23:28:47.429Z,100442.69
2022-10-12T23:31:16.052Z,100442.66
2022-10-12T23:33:42.705Z,100443.50
2022-10-12T23:36:14.526Z,100442.66
2022-10-12T23:38:42.005Z,100439.16
2022-10-12T23:41:09.552Z,100435.75
2022-10-12T23:43:36.091Z,100434.88
2022-10-12T23:46:03.877Z,100428.78
2022-10-12T23:48:31.046Z,100427.94
2022-10-12T23:50:57.531Z,100440.91
2022-10-12T23:53:25.544Z,100441.81
2022-10-12T23:55:52.987Z,100442.66
2022-10-12T23:58:19.964Z,100441.75
